Time;durP1;ratioP1;P1;durP2;ratioP2;P2;SDS_P1;SDS_P2;PMS_P1;PMS_P2;Temp;Humidity;BMP_temperature;BMP_pressure;BME280_temperature;BME280_humidity;BME280_pressure;Samples;Min_cycle;Max_cycle;Signal;HPM_P1;HPM_P2
2023/10/09 00:01:32;;;;;;;14.93;12.30;;;;;;;16.26;100.00;101967.03;5253299;28;20710;-71
2023/10/09 00:04:04;;;;;;;14.45;11.13;;;;;;;16.29;100.00;101965.91;5255554;28;20489;-71
2023/10/09 00:06:39;;;;;;;14.25;11.98;;;;;;;16.28;100.00;101957.13;5255189;28;20489;-71
2023/10/09 00:11:57;;;;;;;17.88;13.40;;;;;;;16.32;100.00;101955.03;5256968;28;20490;-71
2023/10/09 00:14:33;;;;;;;15.18;11.88;;;;;;;16.42;100.00;101947.94;5257782;28;20032;-71
2023/10/09 00:19:47;;;;;;;16.35;12.05;;;;;;;16.49;100.00;101935.81;5257157;28;20036;-71
2023/10/09 00:22:26;;;;;;;16.70;13.32;;;;;;;16.52;100.00;101937.34;5254522;28;20040;-71
2023/10/09 00:25:10;;;;;;;14.63;11.80;;;;;;;16.50;100.00;101944.59;5257445;28;20055;-71
2023/10/09 00:27:43;;;;;;;17.35;11.85;;;;;;;16.54;100.00;101940.69;5256655;28;20039;-71
2023/10/09 00:30:21;;;;;;;14.07;11.30;;;;;;;16.59;100.00;101942.88;5250613;28;20044;-71
2023/10/09 00:38:24;;;;;;;18.13;11.73;;;;;;;16.65;100.00;101924.63;5254457;28;20040;-71
2023/10/09 00:43:43;;;;;;;13.65;11.93;;;;;;;16.68;100.00;101926.16;5257330;28;20036;-71
2023/10/09 00:49:02;;;;;;;19.63;12.50;;;;;;;16.83;100.00;101908.06;5256145;28;20539;-71
2023/10/09 00:51:35;;;;;;;17.38;12.90;;;;;;;16.78;100.00;101911.09;5258544;28;20052;-73
2023/10/09 00:54:13;;;;;;;17.27;12.70;;;;;;;16.80;100.00;101918.91;5257539;28;20469;-71
2023/10/09 00:56:51;;;;;;;15.93;11.60;;;;;;;16.76;100.00;101910.44;5257946;28;20032;-71
2023/10/09 00:59:25;;;;;;;15.00;12.65;;;;;;;16.81;100.00;101937.28;5255340;28;20029;-71
2023/10/09 01:01:59;;;;;;;13.27;11.88;;;;;;;16.84;100.00;101928.25;5254408;28;20033;-72
2023/10/09 01:04:36;;;;;;;15.90;13.18;;;;;;;16.86;100.00;101923.63;5253321;28;20032;-71
2023/10/09 01:07:14;;;;;;;14.73;12.50;;;;;;;16.82;100.00;101917.81;5253966;28;20024;-71
2023/10/09 01:09:49;;;;;;;15.70;12.25;;;;;;;16.90;100.00;101920.56;5254016;28;20020;-72
2023/10/09 01:12:21;;;;;;;17.40;12.88;;;;;;;16.91;100.00;101924.03;5254224;28;20493;-71
2023/10/09 01:14:55;;;;;;;17.42;11.93;;;;;;;16.92;100.00;101923.06;5254437;28;20731;-71
2023/10/09 01:17:35;;;;;;;17.73;12.50;;;;;;;16.92;100.00;101923.06;5254236;28;20025;-72
2023/10/09 01:20:16;;;;;;;16.80;12.77;;;;;;;16.93;100.00;101922.06;5254525;28;20405;-72
2023/10/09 01:22:50;;;;;;;12.73;10.48;;;;;;;16.94;100.00;101905.22;5253700;28;20048;-71
2023/10/09 01:25:22;;;;;;;16.77;12.30;;;;;;;16.96;100.00;101914.66;5253208;28;20269;-72
2023/10/09 01:27:54;;;;;;;15.63;11.85;;;;;;;16.95;100.00;101926.25;5251217;28;20036;-71
2023/10/09 01:30:28;;;;;;;15.45;11.95;;;;;;;16.96;100.00;101921.78;5253800;28;20021;-72
2023/10/09 01:33:11;;;;;;;16.38;11.52;;;;;;;16.98;100.00;101917.19;5253487;28;20492;-72
2023/10/09 01:35:47;;;;;;;13.75;11.32;;;;;;;17.04;100.00;101927.19;5251923;28;20044;-72
2023/10/09 01:38:30;;;;;;;14.88;11.48;;;;;;;16.99;100.00;101929.44;5254765;28;20346;-72
2023/10/09 01:41:07;;;;;;;16.40;11.45;;;;;;;17.09;100.00;101924.13;5253484;28;20037;-71
2023/10/09 01:43:44;;;;;;;13.63;11.15;;;;;;;17.02;100.00;101922.03;5253317;28;20029;-71
2023/10/09 01:46:19;;;;;;;13.85;11.25;;;;;;;17.00;100.00;101916.03;5253668;28;20032;-72
2023/10/09 01:48:53;;;;;;;14.60;10.73;;;;;;;17.01;100.00;101914.25;5254527;28;20037;-71
2023/10/09 01:51:33;;;;;;;12.35;10.68;;;;;;;17.00;100.00;101917.84;5253525;28;20035;-72
2023/10/09 01:54:05;;;;;;;14.95;10.95;;;;;;;17.00;100.00;101915.22;5253168;28;20041;-71
2023/10/09 01:56:38;;;;;;;17.35;11.77;;;;;;;16.99;100.00;101919.69;5245008;28;20563;-72
2023/10/09 01:59:11;;;;;;;13.00;10.77;;;;;;;17.00;100.00;101915.22;5251775;28;21619;-72
2023/10/09 02:01:47;;;;;;;15.68;10.73;;;;;;;17.03;100.00;101910.47;5249605;28;20032;-72
2023/10/09 02:04:20;;;;;;;12.63;10.75;;;;;;;16.99;100.00;101908.25;5250939;28;20021;-71
2023/10/09 02:06:52;;;;;;;;;;;;;;;17.80;100.00;101921.59;5250076;28;20025;-72
2023/10/09 02:09:30;;;;;;;14.15;10.77;;;;;;;17.05;100.00;101914.75;5252121;28;19935;-71
2023/10/09 02:12:02;;;;;;;13.10;11.35;;;;;;;17.02;100.00;101915.91;5250592;28;20040;-72
2023/10/09 02:14:41;;;;;;;16.38;12.93;;;;;;;17.07;100.00;101915.47;5251952;28;20033;-72
2023/10/09 02:17:18;;;;;;;14.07;11.48;;;;;;;17.00;100.00;101915.22;5252884;28;20048;-71
2023/10/09 02:19:52;;;;;;;17.08;11.32;;;;;;;16.95;100.00;101899.78;5252352;28;20469;-72
2023/10/09 02:22:26;;;;;;;17.13;12.30;;;;;;;16.99;100.00;101909.09;5251340;28;20040;-72
2023/10/09 02:24:58;;;;;;;16.73;11.50;;;;;;;17.00;100.00;101907.28;5250761;28;20025;-72
2023/10/09 02:27:43;;;;;;;15.60;10.98;;;;;;;17.01;100.00;101903.66;5243838;28;20067;-72
2023/10/09 02:30:17;;;;;;;14.57;11.55;;;;;;;17.04;100.00;101906.00;5252365;28;20389;-72
2023/10/09 02:32:52;;;;;;;15.85;11.65;;;;;;;17.01;100.00;101901.84;5250830;28;20481;-72
2023/10/09 02:35:42;;;;;;;14.18;11.32;;;;;;;17.01;100.00;101895.72;5249632;28;20049;-71
2023/10/09 02:38:14;;;;;;;15.23;11.23;;;;;;;17.00;100.00;101883.44;5252020;28;20040;-72
2023/10/09 02:43:50;;;;;;;11.93;10.40;;;;;;;16.99;100.00;101876.50;5256039;28;20044;-71
2023/10/09 02:46:31;;;;;;;15.20;11.30;;;;;;;16.99;100.00;101869.38;5255828;28;20032;-72
2023/10/09 02:49:09;;;;;;;14.63;11.52;;;;;;;16.98;100.00;101870.38;5255945;28;20056;-71
2023/10/09 02:51:42;;;;;;;17.80;12.25;;;;;;;16.99;100.00;101868.53;5254809;28;20793;-72
2023/10/09 02:59:26;;;;;;;14.45;11.38;;;;;;;16.98;100.00;101865.06;5255687;28;20033;-72
2023/10/09 03:01:59;;;;;;;13.93;11.57;;;;;;;16.98;100.00;101883.59;5255529;28;20029;-71
2023/10/09 03:04:31;;;;;;;;;;;;;;;17.77;100.00;101876.88;5255927;28;20029;-72
2023/10/09 03:07:04;;;;;;;13.40;11.35;;;;;;;17.03;100.00;101883.97;5255804;28;19927;-71
2023/10/09 03:09:36;;;;;;;13.43;11.02;;;;;;;17.02;100.00;101884.16;5255043;28;20040;-71
2023/10/09 03:12:11;;;;;;;15.23;10.68;;;;;;;17.00;100.00;101891.38;5255804;28;20041;-72
2023/10/09 03:14:43;;;;;;;15.27;11.65;;;;;;;16.97;100.00;101886.38;5255475;28;20718;-72
2023/10/09 03:17:15;;;;;;;13.93;11.02;;;;;;;16.97;100.00;101881.09;5255604;28;20039;-71
2023/10/09 03:19:48;;;;;;;14.80;11.73;;;;;;;16.98;100.00;101872.19;5255127;28;20039;-72
2023/10/09 03:22:20;;;;;;;14.07;11.95;;;;;;;16.98;100.00;101856.31;5255466;28;20028;-72
2023/10/09 03:24:52;;;;;;;15.05;11.35;;;;;;;16.95;100.00;101859.22;5255303;28;20037;-72
2023/10/09 03:27:25;;;;;;;15.07;11.20;;;;;;;16.98;100.00;101858.94;5254931;28;20048;-72
2023/10/09 03:29:57;;;;;;;15.27;12.02;;;;;;;16.97;100.00;101854.59;5254472;28;20032;-72
2023/10/09 03:32:29;;;;;;;15.90;12.18;;;;;;;16.96;100.00;101852.94;5256605;28;20032;-72
2023/10/09 03:35:03;;;;;;;14.52;11.05;;;;;;;16.98;100.00;101857.13;5255304;28;20033;-72
2023/10/09 03:37:35;;;;;;;13.40;10.77;;;;;;;16.95;100.00;101848.66;5254502;28;20580;-72
2023/10/09 03:40:08;;;;;;;13.27;10.82;;;;;;;16.90;100.00;101841.16;5254834;28;20035;-72
2023/10/09 03:42:42;;;;;;;15.00;11.10;;;;;;;16.95;100.00;101843.34;5263833;28;20492;-72
2023/10/09 03:45:26;;;;;;;18.02;11.45;;;;;;;16.92;100.00;101836.53;5265596;28;20044;-71
2023/10/09 03:48:08;;;;;;;13.77;11.18;;;;;;;16.90;100.00;101838.50;5250596;28;20045;-72
2023/10/09 03:50:43;;;;;;;13.77;11.15;;;;;;;16.91;100.00;101836.69;5262185;28;20029;-71
2023/10/09 03:53:16;;;;;;;12.00;10.60;;;;;;;16.91;100.00;101841.97;5261513;28;20024;-71
2023/10/09 03:55:47;;;;;;;15.43;11.95;;;;;;;16.90;100.00;101837.69;5259623;28;20041;-72
2023/10/09 03:58:19;;;;;;;17.75;11.32;;;;;;;16.91;100.00;101834.88;5265111;28;20032;-71
2023/10/09 04:00:51;;;;;;;15.38;10.90;;;;;;;16.87;100.00;101836.16;5264227;28;20036;-71
2023/10/09 04:03:24;;;;;;;14.90;11.40;;;;;;;16.91;100.00;101840.16;5265254;28;20816;-71
2023/10/09 04:05:56;;;;;;;13.52;10.68;;;;;;;16.92;100.00;101839.19;5263814;28;20405;-72
2023/10/09 04:08:33;;;;;;;13.95;11.32;;;;;;;16.90;100.00;101835.84;5259804;28;20079;-71
2023/10/09 04:11:16;;;;;;;16.45;11.40;;;;;;;16.85;100.00;101846.03;5262131;28;20024;-72
2023/10/09 04:13:49;;;;;;;15.88;11.38;;;;;;;16.92;100.00;101846.28;5260675;28;20410;-71
2023/10/09 04:16:34;;;;;;;13.88;10.75;;;;;;;16.88;100.00;101848.41;5260756;28;20374;-71
2023/10/09 04:19:11;;;;;;;12.93;10.65;;;;;;;16.89;100.00;101842.13;5261326;28;20044;-72
2023/10/09 04:21:42;;;;;;;13.95;10.50;;;;;;;16.86;100.00;101830.97;5261578;28;20032;-72
2023/10/09 04:26:46;;;;;;;13.88;11.13;;;;;;;16.89;100.00;101820.94;5267841;28;20333;-72
2023/10/09 04:29:26;;;;;;;14.65;11.65;;;;;;;16.90;100.00;101824.44;5263082;28;20037;-72
2023/10/09 04:32:00;;;;;;;12.55;11.18;;;;;;;16.87;100.00;101812.31;5262962;28;20812;-72
2023/10/09 04:34:34;;;;;;;15.90;11.75;;;;;;;16.86;100.00;101821.25;5261788;28;20639;-72
2023/10/09 04:40:01;;;;;;;15.15;11.68;;;;;;;16.91;100.00;101857.88;5262586;28;20048;-72
2023/10/09 04:42:38;;;;;;;15.32;11.02;;;;;;;16.93;100.00;101858.53;5262318;28;20024;-71
2023/10/09 04:51:10;;;;;;;16.27;12.20;;;;;;;16.95;100.00;101861.88;5242615;28;20032;-71
2023/10/09 04:53:47;;;;;;;15.88;11.43;;;;;;;16.87;100.00;101856.50;5266220;28;20037;-72
2023/10/09 04:56:24;;;;;;;16.08;12.10;;;;;;;16.95;100.00;101857.41;5259355;28;20056;-71
2023/10/09 04:59:03;;;;;;;16.63;12.35;;;;;;;16.94;100.00;101852.28;5263671;28;20027;-72
2023/10/09 05:01:43;;;;;;;14.90;12.15;;;;;;;16.96;100.00;101845.00;5265405;28;20032;-72
2023/10/09 05:04:29;;;;;;;15.63;11.52;;;;;;;16.94;100.00;101842.53;5263216;28;20029;-72
2023/10/09 05:07:22;;;;;;;14.23;11.77;;;;;;;16.96;100.00;101856.44;5263986;28;20031;-72
2023/10/09 05:09:56;;;;;;;15.10;11.45;;;;;;;17.03;100.00;101848.75;5262852;28;20045;-72
2023/10/09 05:12:29;;;;;;;14.45;11.95;;;;;;;17.01;100.00;101843.59;5262963;28;20473;-72
2023/10/09 05:15:12;;;;;;;14.70;11.55;;;;;;;17.10;100.00;101856.94;5264210;28;20027;-72
2023/10/09 05:17:51;;;;;;;14.88;11.73;;;;;;;17.03;100.00;101864.63;5264273;28;20044;-71
2023/10/09 05:22:58;;;;;;;15.20;12.02;;;;;;;17.05;100.00;101862.69;5262259;28;20401;-71
2023/10/09 05:29:18;;;;;;;15.68;12.35;;;;;;;17.08;100.00;101869.47;5268880;28;20486;-71
2023/10/09 05:31:45;;;;;;;16.08;12.43;;;;;;;17.07;100.00;101860.69;5249201;28;20068;-71
2023/10/09 05:34:07;;;;;;;18.38;11.88;;;;;;;17.09;100.00;101881.75;5263146;28;20366;-71
2023/10/09 05:36:47;;;;;;;16.95;13.07;;;;;;;17.10;100.00;101883.41;5265625;28;20047;-71
2023/10/09 05:42:12;;;;;;;14.10;12.55;;;;;;;17.12;100.00;101892.03;5262335;28;20036;-71
2023/10/09 05:45:44;;;;;;;18.63;12.20;;;;;;;17.12;100.00;101895.53;5262835;28;20243;-71
2023/10/09 05:47:57;;;;;;;;;;;;;;;17.93;100.00;101887.59;5263292;28;20044;-71
2023/10/09 05:50:38;;;;;;;18.40;12.23;;;;;;;17.19;100.00;101888.63;5264391;28;19917;-71
2023/10/09 05:53:55;;;;;;;15.65;12.23;;;;;;;17.16;100.00;101880.16;5264707;28;20039;-71
2023/10/09 06:07:24;;;;;;;18.05;13.45;;;;;;;17.16;100.00;101917.22;5263264;28;20401;-70
2023/10/09 06:09:56;;;;;;;18.10;13.63;;;;;;;17.17;100.00;101916.25;5263104;28;20035;-71
2023/10/09 06:12:49;;;;;;;19.95;14.90;;;;;;;17.15;100.00;101916.41;5260979;28;20043;-71
2023/10/09 06:18:34;;;;;;;21.10;15.52;;;;;;;17.30;100.00;101906.16;5263430;28;20040;-71
2023/10/09 06:46:03;;;;;;;18.33;14.68;;;;;;;17.31;100.00;101923.69;5261643;28;20395;-71
2023/10/09 06:54:04;;;;;;;17.75;14.45;;;;;;;17.26;100.00;101907.41;5260305;28;20339;-70
2023/10/09 06:59:21;;;;;;;20.13;15.52;;;;;;;17.32;100.00;101895.41;5257250;28;20226;-71
2023/10/09 07:04:48;;;;;;;16.30;14.10;;;;;;;17.38;100.00;101886.84;5260578;28;20060;-71
2023/10/09 07:07:20;;;;;;;17.52;14.38;;;;;;;17.47;100.00;101870.09;5256442;28;20035;-71
2023/10/09 07:13:03;;;;;;;20.15;14.38;;;;;;;17.55;100.00;101856.09;5153088;28;20038;-71
2023/10/09 07:18:40;;;;;;;16.60;14.75;;;;;;;17.61;100.00;101839.56;5226229;28;20425;-71
2023/10/09 07:21:18;;;;;;;21.70;15.25;;;;;;;17.69;100.00;101848.44;5259651;28;20033;-71
2023/10/09 07:23:55;;;;;;;19.20;14.65;;;;;;;17.58;100.00;101867.22;5258049;28;20028;-71
2023/10/09 07:26:36;;;;;;;21.48;15.05;;;;;;;17.62;100.00;101855.31;5261982;28;20036;-71
2023/10/09 07:29:16;;;;;;;18.02;13.60;;;;;;;17.61;100.00;101858.94;5252793;28;20039;-71
2023/10/09 07:31:57;;;;;;;17.67;14.13;;;;;;;17.58;100.00;101867.22;5263811;28;20028;-71
2023/10/09 07:34:32;;;;;;;18.85;14.18;;;;;;;17.64;100.00;101905.50;5262387;28;20040;-71
2023/10/09 07:37:04;;;;;;;19.55;14.10;;;;;;;17.67;100.00;101915.81;5265019;28;20527;-71
2023/10/09 07:39:36;;;;;;;18.35;14.23;;;;;;;17.71;100.00;101935.72;5265842;28;20033;-71
2023/10/09 07:42:19;;;;;;;16.92;14.63;;;;;;;17.72;100.00;101937.38;5262896;28;20030;-71
2023/10/09 07:44:55;;;;;;;;;;;;;;;18.47;100.00;101938.75;5265242;28;20040;-71
2023/10/09 07:50:40;;;;;;;16.10;14.07;;;;;;;17.90;100.00;101946.22;5250629;28;20040;-71
2023/10/09 07:53:17;;;;;;;19.20;14.70;;;;;;;17.75;100.00;101937.97;5259924;28;20032;-72
2023/10/09 07:55:55;;;;;;;21.83;14.63;;;;;;;17.75;100.00;101913.28;5263229;28;20025;-71
2023/10/09 07:58:28;;;;;;;18.40;13.93;;;;;;;17.78;100.00;101904.19;5262679;28;20047;-71
2023/10/09 08:01:07;;;;;;;22.52;14.70;;;;;;;17.77;100.00;101903.38;5260653;28;20040;-72
2023/10/09 08:03:39;;;;;;;19.63;14.80;;;;;;;17.80;100.00;101902.22;5265039;28;20037;-71
2023/10/09 08:12:13;;;;;;;18.20;14.40;;;;;;;17.90;100.00;101918.88;5265138;28;20066;-71
2023/10/09 08:14:48;;;;;;;17.38;13.73;;;;;;;17.98;100.00;101913.66;5263141;28;20044;-71
2023/10/09 08:17:27;;;;;;;20.40;14.68;;;;;;;18.02;100.00;101920.31;5264591;28;20033;-71
2023/10/09 08:20:11;;;;;;;17.10;14.40;;;;;;;18.04;100.00;101918.34;5262021;28;20108;-71
2023/10/09 08:22:43;;;;;;;20.42;15.25;;;;;;;18.02;100.00;101917.66;5265787;28;20033;-71
2023/10/09 08:25:34;;;;;;;17.75;15.02;;;;;;;18.17;100.00;101926.75;5264336;28;20028;-71
2023/10/09 08:36:14;;;;;;;18.33;15.10;;;;;;;18.43;100.00;101897.59;5261450;28;20529;-72
2023/10/09 08:38:46;;;;;;;18.33;14.52;;;;;;;18.51;100.00;101907.41;5261100;28;20659;-73
2023/10/09 08:41:19;;;;;;;16.38;14.48;;;;;;;18.63;100.00;101900.03;5264463;28;20370;-73
2023/10/09 08:43:53;;;;;;;19.67;15.15;;;;;;;18.61;100.00;101892.22;5258254;28;20032;-73
2023/10/09 08:46:27;;;;;;;21.70;15.52;;;;;;;18.66;100.00;101900.53;5260050;28;20807;-73
2023/10/09 08:48:59;;;;;;;21.40;15.38;;;;;;;18.69;100.00;101896.75;5264286;28;20037;-73
2023/10/09 08:51:32;;;;;;;20.02;15.90;;;;;;;18.77;100.00;101896.00;5261954;28;20428;-72
2023/10/09 08:54:11;;;;;;;18.67;14.23;;;;;;;18.91;100.00;101900.72;5257362;28;20028;-72
2023/10/09 08:56:51;;;;;;;18.02;15.15;;;;;;;18.98;100.00;101893.78;5262210;28;20039;-72
2023/10/09 08:59:23;;;;;;;18.95;15.15;;;;;;;18.97;100.00;101876.16;5260760;28;20033;-72
2023/10/09 09:01:58;;;;;;;20.10;15.95;;;;;;;19.10;100.00;101891.66;5260158;28;20413;-75
2023/10/09 09:04:41;;;;;;;21.02;14.98;;;;;;;19.35;100.00;101895.22;5260072;28;20127;-72
2023/10/09 09:07:31;;;;;;;19.75;14.95;;;;;;;19.48;100.00;101900.91;5262395;28;20036;-73
2023/10/09 09:10:21;;;;;;;17.88;15.27;;;;;;;19.27;100.00;101898.69;5262428;28;20032;-75
2023/10/09 09:13:03;;;;;;;19.20;15.18;;;;;;;19.37;100.00;101902.03;5261723;28;20040;-72
2023/10/09 09:15:39;;;;;;;19.97;15.60;;;;;;;19.49;100.00;101907.88;5265162;28;20039;-73
2023/10/09 09:18:17;;;;;;;22.42;16.77;;;;;;;19.54;100.00;101900.25;5263928;28;20294;-72
2023/10/09 09:20:53;;;;;;;20.17;15.10;;;;;;;19.61;100.00;101919.84;5262862;28;20025;-72
2023/10/09 09:23:26;;;;;;;19.42;15.65;;;;;;;19.67;100.00;101923.75;5260403;28;20497;-72
2023/10/09 09:26:11;;;;;;;16.83;15.02;;;;;;;19.80;100.00;101947.19;5262902;28;20029;-72
2023/10/09 09:28:54;;;;;;;18.35;15.43;;;;;;;20.02;100.00;101938.56;5259764;28;20032;-74
2023/10/09 09:31:26;;;;;;;18.70;14.82;;;;;;;19.95;100.00;101936.72;5263099;28;20040;-72
2023/10/09 09:33:58;;;;;;;20.65;15.95;;;;;;;19.99;100.00;101938.88;5258186;28;20054;-72
2023/10/09 09:36:34;;;;;;;20.37;15.27;;;;;;;20.16;100.00;101945.88;5258739;28;20028;-73
2023/10/09 09:39:18;;;;;;;18.55;14.98;;;;;;;20.10;100.00;101948.38;5260810;28;20025;-72
2023/10/09 09:41:52;;;;;;;18.42;15.15;;;;;;;20.18;100.00;101951.84;5262629;28;20032;-73
2023/10/09 09:44:26;;;;;;;22.67;16.27;;;;;;;20.21;100.00;101953.38;5261009;28;20477;-74
2023/10/09 09:47:00;;;;;;;19.88;16.08;;;;;;;20.21;100.00;101961.34;5260897;28;20029;-73
2023/10/09 09:49:33;;;;;;;21.60;16.55;;;;;;;20.13;100.00;101953.38;5259183;28;20461;-73
2023/10/09 09:52:09;;;;;;;20.50;16.30;;;;;;;20.22;100.00;101963.00;5261261;28;20041;-73
2023/10/09 09:54:41;;;;;;;19.88;17.35;;;;;;;20.24;100.00;101971.66;5261024;28;20036;-73
2023/10/09 09:57:15;;;;;;;19.88;17.00;;;;;;;20.30;100.00;101963.00;5265474;28;20107;-73
2023/10/09 09:59:50;;;;;;;21.73;17.25;;;;;;;20.28;100.00;101972.16;5263606;28;20444;-75
2023/10/09 10:02:29;;;;;;;20.63;17.13;;;;;;;20.42;100.00;101964.34;5252571;28;20386;-73
2023/10/09 10:05:07;;;;;;;22.00;17.35;;;;;;;20.44;100.00;101964.16;5261396;28;20032;-73
2023/10/09 10:07:42;;;;;;;21.15;17.80;;;;;;;20.47;100.00;101971.81;5256917;28;20032;-73
2023/10/09 10:10:57;;;;;;;22.42;17.42;;;;;;;20.82;100.00;101973.28;5260298;28;20031;-72
2023/10/09 10:13:41;;;;;;;20.67;16.73;;;;;;;20.82;100.00;101972.47;5258673;28;20367;-73
2023/10/09 10:19:21;;;;;;;23.75;17.67;;;;;;;20.81;100.00;101981.47;5258859;28;20040;-73
2023/10/09 10:21:53;;;;;;;19.15;17.05;;;;;;;20.81;100.00;101973.47;5261559;28;20043;-73
2023/10/09 10:24:30;;;;;;;21.30;18.00;;;;;;;20.92;100.00;101973.13;5259016;28;20033;-73
2023/10/09 10:27:27;;;;;;;32.00;20.13;;;;;;;20.99;100.00;101978.59;5260497;28;20047;-73
2023/10/09 10:30:11;;;;;;;22.77;18.52;;;;;;;21.05;100.00;101972.56;5256804;28;20067;-73
2023/10/09 10:32:53;;;;;;;21.75;17.70;;;;;;;21.01;100.00;101977.41;5259161;28;20467;-73
2023/10/09 10:38:49;;;;;;;23.65;18.23;;;;;;;21.30;100.00;101975.97;5261288;28;20400;-73
2023/10/09 10:41:22;;;;;;;21.77;18.52;;;;;;;21.06;100.00;101967.09;5261833;28;20040;-72
2023/10/09 10:43:54;;;;;;;22.27;19.85;;;;;;;21.15;100.00;101973.19;5259160;28;20385;-75
2023/10/09 10:52:14;;;;;;;23.48;18.20;;;;;;;21.29;100.00;101960.97;5263539;28;20040;-73
2023/10/09 10:54:47;;;;;;;25.25;19.63;;;;;;;21.35;100.00;101955.00;5255126;28;20517;-73
2023/10/09 10:57:28;;;;;;;21.15;18.27;;;;;;;21.44;100.00;101961.09;5260341;28;20366;-73
2023/10/09 11:00:14;;;;;;;26.83;19.48;;;;;;;21.45;100.00;101960.94;5262713;28;20032;-74
2023/10/09 11:02:47;;;;;;;24.25;19.15;;;;;;;21.48;100.00;101959.75;5259770;28;20029;-73
2023/10/09 11:05:25;;;;;;;23.73;18.67;;;;;;;21.60;100.00;101964.53;5258415;28;20397;-73
2023/10/09 11:07:57;;;;;;;21.13;18.02;;;;;;;21.53;100.00;101963.56;5263185;28;20040;-73
2023/10/09 11:10:31;;;;;;;20.42;17.90;;;;;;;21.60;100.00;101967.19;5260804;28;20036;-74
2023/10/09 11:15:44;;;;;;;21.17;17.77;;;;;;;21.62;100.00;101973.16;5270003;28;20051;-75
2023/10/09 11:26:27;;;;;;;19.67;16.40;;;;;;;21.82;100.00;101970.03;5261885;28;20378;-73
2023/10/09 11:32:17;;;;;;;18.90;16.00;;;;;;;21.86;100.00;101963.38;5257007;28;20040;-73
2023/10/09 11:34:54;;;;;;;17.67;13.80;;;;;;;21.88;100.00;101966.69;5252402;28;20052;-73
2023/10/09 11:40:00;;;;;;;15.02;12.98;;;;;;;21.97;100.00;101964.78;5262958;28;20045;-73
2023/10/09 11:42:49;;;;;;;17.13;13.18;;;;;;;22.09;100.00;101945.50;5254034;28;20044;-74
2023/10/09 11:45:37;;;;;;;16.85;13.02;;;;;;;22.23;100.00;101959.09;5253971;28;20040;-73
2023/10/09 11:48:50;;;;;;;15.95;11.90;;;;;;;22.37;100.00;101955.66;5254016;28;20039;-74
2023/10/09 11:51:19;;;;;;;14.27;12.20;;;;;;;22.27;100.00;101953.22;5251902;28;20033;-73
2023/10/09 11:53:58;;;;;;;18.27;13.35;;;;;;;22.25;100.00;101965.09;5255304;28;20364;-73
2023/10/09 11:56:30;;;;;;;17.73;12.25;;;;;;;22.28;100.00;101965.56;5252044;28;20075;-73
2023/10/09 11:59:05;;;;;;;15.80;11.95;;;;;;;22.39;100.00;101963.47;5252787;28;20024;-73
2023/10/09 12:01:42;;;;;;;15.35;11.45;;;;;;;22.36;100.00;101969.19;5262314;28;20044;-73
2023/10/09 12:04:15;;;;;;;16.00;10.93;;;;;;;22.36;100.00;101972.69;5261201;28;20024;-73
2023/10/09 12:06:49;;;;;;;14.18;11.13;;;;;;;22.47;100.00;101966.91;5261917;28;20032;-73
2023/10/09 12:09:24;;;;;;;13.40;10.93;;;;;;;22.51;100.00;101975.41;5264900;28;20162;-73
2023/10/09 12:11:57;;;;;;;14.77;10.77;;;;;;;22.58;100.00;101963.81;5260397;28;20028;-74
2023/10/09 12:14:33;;;;;;;16.00;11.55;;;;;;;22.51;100.00;101968.19;5257265;28;20128;-75
2023/10/09 12:17:07;;;;;;;15.60;10.65;;;;;;;22.54;100.00;101965.19;5256025;28;20572;-74
2023/10/09 12:19:39;;;;;;;14.20;10.10;;;;;;;22.57;100.00;101961.28;5260992;28;20039;-76
2023/10/09 12:22:15;;;;;;;14.17;9.50;;;;;;;22.61;100.00;101965.25;5260708;28;20032;-73
2023/10/09 12:24:47;;;;;;;12.02;8.95;;;;;;;22.54;100.00;101956.31;5262412;28;20028;-73
2023/10/09 12:27:20;;;;;;;14.93;9.37;;;;;;;22.64;100.00;101946.19;5257917;28;20044;-74
2023/10/09 12:29:51;;;;;;;18.63;8.85;;;;;;;22.68;100.00;101952.00;5256834;28;20287;-73
2023/10/09 12:32:23;;;;;;;15.57;8.27;;;;;;;22.66;100.00;101941.53;5260632;28;20027;-74
2023/10/09 12:34:56;;;;;;;13.43;8.70;;;;;;;22.76;100.00;101946.56;5263921;28;20063;-73
2023/10/09 12:37:28;;;;;;;12.15;8.88;;;;;;;22.79;100.00;101948.88;5264101;28;20040;-74
2023/10/09 12:40:05;;;;;;;10.90;7.40;;;;;;;22.78;100.00;101947.22;5258314;28;20527;-75
2023/10/09 12:42:37;;;;;;;13.80;7.45;;;;;;;22.70;100.00;101950.81;5254158;28;20490;-72
2023/10/09 12:45:09;;;;;;;12.77;7.70;;;;;;;22.75;100.00;101942.25;5261463;28;20021;-74
2023/10/09 12:47:42;;;;;;;12.88;7.38;;;;;;;22.76;100.00;101935.88;5265880;28;20485;-72
2023/10/09 12:50:14;;;;;;;11.15;8.02;;;;;;;22.81;100.00;101936.19;5262411;28;20037;-72
2023/10/09 12:52:48;;;;;;;15.23;7.27;;;;;;;22.74;100.00;101928.06;5255756;28;20041;-74
2023/10/09 12:55:31;;;;;;;10.27;7.03;;;;;;;22.82;100.00;101927.16;5264330;28;20027;-72
2023/10/09 12:58:06;;;;;;;11.57;7.32;;;;;;;22.89;100.00;101912.03;5257448;28;20504;-72
2023/10/09 13:00:44;;;;;;;11.27;7.30;;;;;;;22.94;100.00;101909.66;5256740;28;20067;-72
2023/10/09 13:03:17;;;;;;;11.30;7.38;;;;;;;22.91;100.00;101910.03;5262739;28;20484;-75
2023/10/09 13:05:53;;;;;;;12.60;7.82;;;;;;;22.97;100.00;101909.28;5259552;28;20473;-72
2023/10/09 13:08:35;;;;;;;10.25;7.07;;;;;;;22.95;100.00;101905.97;5259385;28;20028;-72
2023/10/09 13:11:10;;;;;;;12.70;7.45;;;;;;;;;;5261849;28;20039;-73
2023/10/09 13:13:44;;;;;;;12.13;7.30;;;;;;;23.08;100.00;101910.66;5263086;28;20044;-73
2023/10/09 13:16:23;;;;;;;11.88;7.13;;;;;;;23.14;100.00;101906.41;5263962;28;20100;-72
2023/10/09 13:18:59;;;;;;;12.15;7.45;;;;;;;23.08;100.00;101909.84;5260469;28;20028;-75
2023/10/09 13:21:31;;;;;;;14.43;7.15;;;;;;;23.02;100.00;101903.38;5260077;28;20037;-72
2023/10/09 13:24:03;;;;;;;9.43;7.00;;;;;;;23.09;100.00;101906.16;5260828;28;20045;-72
2023/10/09 13:26:35;;;;;;;11.80;7.13;;;;;;;23.06;100.00;101913.50;5259691;28;20063;-71
2023/10/09 13:29:11;;;;;;;9.57;6.90;;;;;;;23.04;100.00;101907.53;5257951;28;20033;-71
2023/10/09 13:31:46;;;;;;;12.27;7.22;;;;;;;23.12;100.00;101914.63;5257936;28;20051;-72
2023/10/09 13:34:18;;;;;;;12.48;7.60;;;;;;;23.15;100.00;101924.94;5258874;28;20025;-72
2023/10/09 13:36:52;;;;;;;14.73;8.37;;;;;;;23.23;100.00;101916.81;5258959;28;20577;-71
2023/10/09 13:39:30;;;;;;;13.25;7.10;;;;;;;23.26;100.00;101911.09;5259990;28;20295;-72
2023/10/09 13:42:06;;;;;;;14.80;7.47;;;;;;;23.23;100.00;101911.47;5259905;28;20036;-74
2023/10/09 13:44:41;;;;;;;11.85;7.32;;;;;;;23.31;100.00;101914.03;5252380;28;20032;-72
2023/10/09 13:47:19;;;;;;;11.57;7.63;;;;;;;23.27;100.00;101926.13;5261031;28;20024;-72
2023/10/09 13:49:52;;;;;;;11.85;7.28;;;;;;;23.33;100.00;101911.16;5260419;28;20471;-72
2023/10/09 13:52:23;;;;;;;11.48;6.72;;;;;;;23.34;100.00;101917.34;5259577;28;20024;-72
2023/10/09 13:54:57;;;;;;;12.87;7.40;;;;;;;23.37;100.00;101922.28;5259874;28;20038;-73
2023/10/09 13:57:31;;;;;;;12.25;6.95;;;;;;;23.44;100.00;101916.00;5260464;28;20283;-72
2023/10/09 14:00:04;;;;;;;13.75;6.75;;;;;;;23.45;100.00;101917.69;5261822;28;20032;-72
2023/10/09 14:02:36;;;;;;;12.07;6.72;;;;;;;23.51;100.00;101916.09;5252403;28;20044;-72
2023/10/09 14:05:08;;;;;;;14.30;7.63;;;;;;;23.58;100.00;101916.16;5261919;28;20025;-72
2023/10/09 14:07:41;;;;;;;10.27;6.13;;;;;;;23.66;100.00;101918.72;5256320;28;20031;-72
2023/10/09 14:10:25;;;;;;;8.38;5.53;;;;;;;23.66;100.00;101922.25;5259567;28;20037;-71
2023/10/09 14:12:57;;;;;;;9.43;5.10;;;;;;;23.66;100.00;101918.72;5263356;28;20032;-71